Port Townsend, Washington
Current Conditions -  °F | °C
As of 10:56 AM on Friday 24 Oct 2014 (Local Time) from KNUW Reporting Station
Broken Clouds Broken Clouds  
Wind Chill: 54°   Ceiling: 23000
Heat Index: 54°   Visibility: 10mi
Dew Point: 45°   Wind: 9mph
Humidity: 72%   Direction: 100°E
Pressure: 30.05"   Gusts: NA
Location:  48.12°N, 122.76°W
Report Text: KNUW 241756Z 10008KT 10SM FEW012 SCT040 SCT090 BKN230 12/07 A3005 RMK AO2 SLP180 T01220072 10128 20094 58001 $
Loading
Personal Weather Stations






























Interactive Weather Map
Tropical Storm Tracking
New forecast layout! Learn more

10-Day Weather Forecast

Advertisements
Track Severe Weather on mobile